Current Weather

Morristown Muni

Morristown, New Jersey (KMMU)

Report from: Friday, February 23, 2024 3:50 PM EST
Current time: Friday, February 23, 2024 4:11 PM EST

Nearby weather – Weather history – Daily summaries
Weather forecast

Temperature9.0°C (48.2°F)
Wind chill7.6°C (45.7°F)
Dew point4.0°C (39.2°F)
Winds 5 kts (2.6 m/s, 5.8 mph) North (350°)
Visibility10 mi. (16.1 km)
Clouds Scattered clouds 13,000 ft. (3,962 m)
Ceiling: Overcast 20,000 ft. (6,096 m)
Altimeter29.45 in.Hg (997 mB)
Relative humidity71 %
Density altitude-54 ft. (-16 m)
Flight conditions Visual Meteorological Conditions
Raw dataKMMU 232050Z 35005KT 10SM SCT130 OVC200 09/04 A2945
An error has occurred. This application may no longer respond until reloaded. Reload 🗙